Time;durP1;ratioP1;P1;durP2;ratioP2;P2;SDS_P1;SDS_P2;PMS_P1;PMS_P2;Temp;Humidity;BMP_temperature;BMP_pressure;BME280_temperature;BME280_humidity;BME280_pressure;Samples;Min_cycle;Max_cycle;Signal;HPM_P1;HPM_P2
2022/08/01 00:01:33;;;;;;;;;;;21.50;99.90;;;;;;5070895;28;19923;-50
2022/08/01 00:03:59;;;;;;;;;;;21.50;99.90;;;;;;5070673;28;19912;-50
2022/08/01 00:06:24;;;;;;;;;;;21.40;99.90;;;;;;5087660;28;20383;-55
2022/08/01 00:08:50;;;;;;;;;;;21.40;99.90;;;;;;5074120;28;19917;-51
2022/08/01 00:11:15;;;;;;;;;;;21.40;99.90;;;;;;5070195;28;19923;-50
2022/08/01 00:13:41;;;;;;;;;;;21.20;99.90;;;;;;5073255;28;19908;-49
2022/08/01 00:16:07;;;;;;;;;;;21.30;99.90;;;;;;5077430;28;19916;-51
2022/08/01 00:18:32;;;;;;;;;;;21.20;99.90;;;;;;5070982;28;19912;-51
2022/08/01 00:20:58;;;;;;;;;;;21.10;99.90;;;;;;5075173;28;19919;-49
2022/08/01 00:23:23;;;;;;;;;;;20.90;99.90;;;;;;5073076;28;19917;-52
2022/08/01 00:25:49;;;;;;;;;;;20.90;99.90;;;;;;5069863;28;19924;-52
2022/08/01 00:28:14;;;;;;;;;;;20.90;99.90;;;;;;5071048;28;20016;-52
2022/08/01 00:30:40;;;;;;;;;;;21.00;99.90;;;;;;5073260;28;19928;-52
2022/08/01 00:33:05;;;;;;;;;;;21.10;99.90;;;;;;5071471;28;19920;-52
2022/08/01 00:35:31;;;;;;;;;;;21.10;99.90;;;;;;5074117;28;19923;-53
2022/08/01 00:37:56;;;;;;;;;;;21.20;99.90;;;;;;5072889;28;19909;-54
2022/08/01 00:40:22;;;;;;;;;;;21.30;99.90;;;;;;5073632;28;20015;-51
2022/08/01 00:42:47;;;;;;;;;;;21.30;99.90;;;;;;5069691;28;19917;-52
2022/08/01 00:45:13;;;;;;;;;;;21.40;99.90;;;;;;5072720;28;20405;-49
2022/08/01 00:47:38;;;;;;;;;;;21.30;99.90;;;;;;5072376;28;20267;-55
2022/08/01 00:50:04;;;;;;;;;;;21.30;99.90;;;;;;5070881;28;20019;-56
2022/08/01 00:52:30;;;;;;;;;;;21.40;99.90;;;;;;5070336;28;19912;-50
2022/08/01 00:54:56;;;;;;;;;;;21.50;99.90;;;;;;5074256;28;20383;-54
2022/08/01 00:57:21;;;;;;;;;;;21.50;99.90;;;;;;5070410;28;20450;-52
2022/08/01 00:59:47;;;;;;;;;;;21.50;99.90;;;;;;5072990;28;19974;-51
2022/08/01 01:02:12;;;;;;;;;;;21.50;99.90;;;;;;5073146;28;19927;-52
2022/08/01 01:04:38;;;;;;;;;;;21.40;99.90;;;;;;5092767;28;19919;-52
2022/08/01 01:07:13;;;;;;;;;;;21.50;99.90;;;;;;5085866;28;19923;-53
2022/08/01 01:09:38;;;;;;;;;;;21.50;99.90;;;;;;5072449;28;20372;-49
2022/08/01 01:12:18;;;;;;;;;;;21.50;99.90;;;;;;5080731;28;19912;-49
2022/08/01 01:14:50;;;;;;;;;;;21.50;99.90;;;;;;5082716;28;19956;-52
2022/08/01 01:17:17;;;;;;;;;;;21.40;99.90;;;;;;5072045;28;20479;-52
2022/08/01 01:19:47;;;;;;;;;;;21.40;99.90;;;;;;5076787;28;20272;-52
2022/08/01 01:22:13;;;;;;;;;;;21.40;99.90;;;;;;5092917;28;19916;-50
2022/08/01 01:24:54;;;;;;;;;;;21.40;99.90;;;;;;5085029;28;19919;-51
2022/08/01 01:27:33;;;;;;;;;;;21.40;99.90;;;;;;5072322;28;19913;-50
2022/08/01 01:30:00;;;;;;;;;;;21.40;99.90;;;;;;5081796;28;19916;-50
2022/08/01 01:32:26;;;;;;;;;;;21.30;99.90;;;;;;5083312;28;19923;-51
2022/08/01 01:34:54;;;;;;;;;;;21.40;99.90;;;;;;5073024;28;19909;-56
2022/08/01 01:37:21;;;;;;;;;;;21.40;99.90;;;;;;5071871;28;19944;-51
2022/08/01 01:39:49;;;;;;;;;;;21.20;99.90;;;;;;5072549;28;19960;-51
2022/08/01 01:42:16;;;;;;;;;;;21.20;99.90;;;;;;5073979;28;19961;-50
2022/08/01 01:44:43;;;;;;;;;;;21.20;99.90;;;;;;5072488;28;19970;-51
2022/08/01 01:47:09;;;;;;;;;;;21.10;99.90;;;;;;5072382;28;19920;-49
2022/08/01 01:49:34;;;;;;;;;;;21.00;99.90;;;;;;5073323;28;19912;-54
2022/08/01 01:52:01;;;;;;;;;;;20.90;99.90;;;;;;5086945;28;20544;-49
2022/08/01 01:54:33;;;;;;;;;;;20.80;99.90;;;;;;5093946;28;19912;-53
2022/08/01 01:57:00;;;;;;;;;;;20.80;99.90;;;;;;5091106;28;19974;-51
2022/08/01 01:59:28;;;;;;;;;;;20.80;99.90;;;;;;5078961;28;19912;-50
2022/08/01 02:01:55;;;;;;;;;;;20.80;99.90;;;;;;5053032;28;19924;-50
2022/08/01 02:04:21;;;;;;;;;;;20.90;99.90;;;;;;5078332;28;19946;-53
2022/08/01 02:06:48;;;;;;;;;;;20.80;99.90;;;;;;5092329;28;19919;-54
2022/08/01 02:09:16;;;;;;;;;;;20.90;99.90;;;;;;5081681;28;19919;-51
2022/08/01 02:11:43;;;;;;;;;;;20.90;99.90;;;;;;5072648;28;20315;-52
2022/08/01 02:14:10;;;;;;;;;;;21.00;99.90;;;;;;5082175;28;19912;-52
2022/08/01 02:16:36;;;;;;;;;;;21.00;99.90;;;;;;5092756;28;19916;-49
2022/08/01 02:19:02;;;;;;;;;;;20.90;99.90;;;;;;5081907;28;19993;-53
2022/08/01 02:21:30;;;;;;;;;;;20.90;99.90;;;;;;5083470;28;20424;-54
2022/08/01 02:23:58;;;;;;;;;;;20.80;99.90;;;;;;5072695;28;20543;-50
2022/08/01 02:26:23;;;;;;;;;;;20.70;99.90;;;;;;5077959;28;19912;-52
2022/08/01 02:28:52;;;;;;;;;;;20.70;99.90;;;;;;5092903;28;20409;-49
2022/08/01 02:31:20;;;;;;;;;;;20.70;99.90;;;;;;5082060;28;19985;-50
2022/08/01 02:33:48;;;;;;;;;;;20.80;99.90;;;;;;5071788;28;19923;-50
2022/08/01 02:36:14;;;;;;;;;;;20.90;99.90;;;;;;5077221;28;20364;-51
2022/08/01 02:38:44;;;;;;;;;;;20.70;99.90;;;;;;5072783;28;19920;-50
2022/08/01 02:41:12;;;;;;;;;;;20.70;99.90;;;;;;5082842;28;19984;-53
2022/08/01 02:43:40;;;;;;;;;;;20.80;99.90;;;;;;5071670;28;19912;-51
2022/08/01 02:46:08;;;;;;;;;;;20.90;99.90;;;;;;5069202;28;19959;-54
2022/08/01 02:48:34;;;;;;;;;;;20.80;99.90;;;;;;5072278;28;19932;-50
2022/08/01 02:51:01;;;;;;;;;;;20.80;99.90;;;;;;5073225;28;19919;-52
2022/08/01 02:53:30;;;;;;;;;;;20.70;99.90;;;;;;5073238;28;19935;-51
2022/08/01 02:55:56;;;;;;;;;;;20.70;99.90;;;;;;5083026;28;19962;-54
2022/08/01 02:58:24;;;;;;;;;;;20.80;99.90;;;;;;5089794;28;20372;-51
2022/08/01 03:00:50;;;;;;;;;;;20.80;99.90;;;;;;5091907;28;20041;-51
2022/08/01 03:03:16;;;;;;;;;;;20.60;99.90;;;;;;5077800;28;20003;-55
2022/08/01 03:05:42;;;;;;;;;;;20.50;99.90;;;;;;5089257;28;20384;-54
2022/08/01 03:08:08;;;;;;;;;;;20.40;99.90;;;;;;5088625;28;19932;-56
2022/08/01 03:10:35;;;;;;;;;;;20.30;99.90;;;;;;5091749;28;19919;-51
2022/08/01 03:13:02;;;;;;;;;;;20.20;99.90;;;;;;5080672;28;20333;-52
2022/08/01 03:15:30;;;;;;;;;;;20.30;99.90;;;;;;5071889;28;20006;-54
2022/08/01 03:17:56;;;;;;;;;;;20.30;99.90;;;;;;5090946;28;19916;-53
2022/08/01 03:20:24;;;;;;;;;;;20.30;99.90;;;;;;5090342;28;19923;-54
2022/08/01 03:22:52;;;;;;;;;;;20.20;99.90;;;;;;5092337;28;19920;-53
2022/08/01 03:25:18;;;;;;;;;;;20.20;99.90;;;;;;5081852;28;19913;-51
2022/08/01 03:27:45;;;;;;;;;;;20.20;99.90;;;;;;5071836;28;20045;-51
2022/08/01 03:30:11;;;;;;;;;;;20.30;99.90;;;;;;5083772;28;19916;-53
2022/08/01 03:32:36;;;;;;;;;;;20.20;99.90;;;;;;5081155;28;19916;-51
2022/08/01 03:35:02;;;;;;;;;;;20.20;99.90;;;;;;5071884;28;19924;-49
2022/08/01 03:37:29;;;;;;;;;;;20.30;99.90;;;;;;5079575;28;19957;-49
2022/08/01 03:39:57;;;;;;;;;;;20.40;99.90;;;;;;5091643;28;19908;-51
2022/08/01 03:42:26;;;;;;;;;;;20.20;99.90;;;;;;5087120;28;20008;-49
2022/08/01 03:45:33;;;;;;;;;;;;;;;;;;;;;
2022/08/01 03:48:01;;;;;;;;;;;20.30;99.90;;;;;;5052719;28;19978;-50
2022/08/01 03:50:27;;;;;;;;;;;20.30;99.90;;;;;;5055394;28;19916;-49
2022/08/01 03:52:54;;;;;;;;;;;20.30;99.90;;;;;;5086838;28;19921;-53
2022/08/01 03:55:21;;;;;;;;;;;20.30;99.90;;;;;;5095334;28;19943;-52
2022/08/01 03:57:47;;;;;;;;;;;20.30;99.90;;;;;;5080534;28;19956;-52
2022/08/01 04:00:18;;;;;;;;;;;20.40;99.90;;;;;;5082619;28;19943;-51
2022/08/01 04:02:47;;;;;;;;;;;20.40;99.90;;;;;;5095517;28;19912;-50
2022/08/01 04:05:13;;;;;;;;;;;20.40;99.90;;;;;;5087002;28;19989;-52
2022/08/01 04:07:39;;;;;;;;;;;20.30;99.90;;;;;;5074361;28;20988;-50
2022/08/01 04:10:23;;;;;;;;;;;20.30;99.90;;;;;;5080874;28;19923;-54
2022/08/01 04:12:49;;;;;;;;;;;20.30;99.90;;;;;;5095031;28;20003;-56
2022/08/01 04:15:15;;;;;;;;;;;20.30;99.90;;;;;;5087174;28;20108;-54
2022/08/01 04:17:40;;;;;;;;;;;20.40;99.90;;;;;;5077636;28;19916;-55
2022/08/01 04:20:06;;;;;;;;;;;20.40;99.90;;;;;;5092362;28;19918;-48
2022/08/01 04:22:32;;;;;;;;;;;20.40;99.90;;;;;;5092849;28;20012;-53
2022/08/01 04:24:59;;;;;;;;;;;20.40;99.90;;;;;;5076544;28;19916;-49
2022/08/01 04:27:29;;;;;;;;;;;20.30;99.90;;;;;;5074862;28;19920;-53
2022/08/01 04:29:56;;;;;;;;;;;20.20;99.90;;;;;;5074305;28;20368;-54
2022/08/01 04:32:22;;;;;;;;;;;20.20;99.90;;;;;;5080262;28;19947;-50
2022/08/01 04:34:49;;;;;;;;;;;20.30;99.90;;;;;;5093993;28;20326;-50
2022/08/01 04:37:16;;;;;;;;;;;20.20;99.90;;;;;;5089214;28;19917;-50
2022/08/01 04:39:42;;;;;;;;;;;20.10;99.90;;;;;;5074622;28;19945;-54
2022/08/01 04:42:08;;;;;;;;;;;20.20;99.90;;;;;;5076341;28;19923;-54
2022/08/01 04:44:34;;;;;;;;;;;20.20;99.90;;;;;;5071934;28;19916;-52
2022/08/01 04:47:00;;;;;;;;;;;20.20;99.90;;;;;;5074690;28;19916;-54
2022/08/01 04:49:26;;;;;;;;;;;20.20;99.90;;;;;;5077205;28;19924;-55
2022/08/01 04:51:57;;;;;;;;;;;20.30;99.90;;;;;;5071902;28;19912;-54
2022/08/01 04:54:24;;;;;;;;;;;20.40;99.90;;;;;;5064636;28;19924;-53
2022/08/01 04:56:49;;;;;;;;;;;20.30;99.90;;;;;;5073902;28;19916;-52
2022/08/01 04:59:57;;;;;;;;;;;20.40;99.90;;;;;;5091054;28;19923;-51
2022/08/01 05:02:03;;;;;;;;;;;20.40;99.90;;;;;;5069911;28;19973;-50
2022/08/01 05:04:29;;;;;;;;;;;20.60;99.90;;;;;;5072309;28;20015;-53
2022/08/01 05:06:54;;;;;;;;;;;20.80;99.90;;;;;;5072157;28;20368;-51
2022/08/01 05:09:20;;;;;;;;;;;20.90;99.90;;;;;;5079939;28;19920;-53
2022/08/01 05:11:45;;;;;;;;;;;21.00;99.90;;;;;;5094510;28;19919;-54
2022/08/01 05:14:11;;;;;;;;;;;21.00;99.90;;;;;;5071332;28;19921;-54
2022/08/01 05:16:36;;;;;;;;;;;21.00;99.90;;;;;;5072499;28;20057;-50
2022/08/01 05:19:02;;;;;;;;;;;21.10;99.90;;;;;;5073711;28;20015;-56
2022/08/01 05:21:28;;;;;;;;;;;21.10;99.90;;;;;;5075688;28;19951;-55
2022/08/01 05:23:53;;;;;;;;;;;21.10;99.90;;;;;;5073690;28;19913;-53
2022/08/01 05:26:19;;;;;;;;;;;21.10;99.90;;;;;;5072631;28;19958;-50
2022/08/01 05:28:44;;;;;;;;;;;20.90;99.90;;;;;;5072605;28;19916;-49
2022/08/01 05:31:10;;;;;;;;;;;20.80;99.90;;;;;;5070994;28;19970;-52
2022/08/01 05:33:35;;;;;;;;;;;20.70;99.90;;;;;;5072866;28;19913;-51
2022/08/01 05:36:01;;;;;;;;;;;20.60;99.90;;;;;;5074152;28;19935;-50
2022/08/01 05:38:26;;;;;;;;;;;20.70;99.90;;;;;;5073167;28;20089;-52
2022/08/01 05:40:52;;;;;;;;;;;20.60;99.90;;;;;;5073242;28;19916;-51
2022/08/01 05:43:17;;;;;;;;;;;20.70;99.90;;;;;;5078468;28;20432;-50
2022/08/01 05:45:44;;;;;;;;;;;20.60;99.90;;;;;;5073438;28;19972;-52
2022/08/01 05:48:09;;;;;;;;;;;20.50;99.90;;;;;;5084608;28;20015;-52
2022/08/01 05:50:35;;;;;;;;;;;20.60;99.90;;;;;;5093306;28;19951;-53
2022/08/01 05:53:00;;;;;;;;;;;20.60;99.90;;;;;;5077279;28;19928;-51
2022/08/01 05:55:26;;;;;;;;;;;20.60;99.90;;;;;;5070410;28;19916;-51
2022/08/01 05:57:51;;;;;;;;;;;20.60;99.90;;;;;;5074555;28;19946;-54
2022/08/01 06:00:17;;;;;;;;;;;20.50;99.90;;;;;;5074254;28;19916;-56
2022/08/01 06:02:43;;;;;;;;;;;20.70;99.90;;;;;;5086496;28;20321;-54
2022/08/01 06:05:09;;;;;;;;;;;20.70;99.90;;;;;;5072922;28;19928;-54
2022/08/01 06:07:35;;;;;;;;;;;20.60;99.90;;;;;;5092889;28;19920;-51
2022/08/01 06:10:00;;;;;;;;;;;20.60;99.90;;;;;;5086786;28;19913;-50
2022/08/01 06:12:26;;;;;;;;;;;20.70;99.90;;;;;;5072548;28;19916;-53
2022/08/01 06:14:51;;;;;;;;;;;20.70;99.90;;;;;;5085746;28;19932;-54
2022/08/01 06:17:17;;;;;;;;;;;20.80;99.90;;;;;;5076128;28;19920;-51
2022/08/01 06:19:42;;;;;;;;;;;20.80;99.90;;;;;;5072720;28;19913;-49
2022/08/01 06:22:08;;;;;;;;;;;20.70;99.90;;;;;;5083077;28;19927;-52
2022/08/01 06:24:33;;;;;;;;;;;20.80;99.90;;;;;;5093042;28;19999;-53
2022/08/01 06:26:59;;;;;;;;;;;20.90;99.90;;;;;;5086011;28;19920;-51
2022/08/01 06:29:24;;;;;;;;;;;21.10;99.90;;;;;;5071678;28;19917;-51
2022/08/01 06:31:50;;;;;;;;;;;21.20;99.90;;;;;;5072487;28;20284;-53
2022/08/01 06:34:16;;;;;;;;;;;21.10;99.90;;;;;;5081767;28;19923;-51
2022/08/01 06:36:41;;;;;;;;;;;21.00;99.90;;;;;;5087035;28;19913;-50
2022/08/01 06:39:07;;;;;;;;;;;20.90;99.90;;;;;;5072202;28;19917;-51
2022/08/01 06:41:32;;;;;;;;;;;21.00;99.90;;;;;;5072715;28;19928;-49
2022/08/01 06:43:59;;;;;;;;;;;21.00;99.90;;;;;;5073781;28;19939;-52
2022/08/01 06:46:25;;;;;;;;;;;20.90;99.90;;;;;;5084376;28;19935;-56
2022/08/01 06:48:50;;;;;;;;;;;20.80;99.90;;;;;;5090422;28;20422;-55
2022/08/01 06:51:19;;;;;;;;;;;21.00;99.90;;;;;;5072633;28;19912;-54
2022/08/01 06:53:45;;;;;;;;;;;20.80;99.90;;;;;;5089124;28;19916;-55
2022/08/01 06:56:10;;;;;;;;;;;20.90;99.90;;;;;;5091733;28;20593;-57
2022/08/01 06:58:36;;;;;;;;;;;20.90;99.90;;;;;;5089916;28;19915;-51
2022/08/01 07:01:03;;;;;;;;;;;20.70;99.90;;;;;;5080848;28;19927;-51
2022/08/01 07:03:29;;;;;;;;;;;20.80;99.90;;;;;;5074063;28;19908;-54
2022/08/01 07:05:55;;;;;;;;;;;20.80;99.90;;;;;;5070986;28;19913;-54
2022/08/01 07:08:20;;;;;;;;;;;20.90;99.90;;;;;;5071107;28;19920;-56
2022/08/01 07:10:46;;;;;;;;;;;20.90;99.90;;;;;;5071223;28;19913;-55
2022/08/01 07:13:12;;;;;;;;;;;21.00;99.90;;;;;;5071306;28;19913;-55
2022/08/01 07:15:37;;;;;;;;;;;21.20;99.90;;;;;;5069639;28;19924;-55
2022/08/01 07:18:03;;;;;;;;;;;20.80;99.90;;;;;;5070791;28;20493;-51
2022/08/01 07:20:29;;;;;;;;;;;21.00;99.90;;;;;;5078704;28;19942;-55
2022/08/01 07:22:54;;;;;;;;;;;21.20;99.90;;;;;;5074058;28;19924;-53
2022/08/01 07:25:20;;;;;;;;;;;21.10;99.90;;;;;;5074963;28;19996;-53
2022/08/01 07:27:45;;;;;;;;;;;20.90;99.90;;;;;;5075293;28;19955;-54
2022/08/01 07:30:11;;;;;;;;;;;21.10;99.90;;;;;;5076188;28;19908;-51
2022/08/01 07:38:43;;;;;;;;;;;21.30;99.90;;;;;;5082489;28;19999;-55
2022/08/01 07:41:08;;;;;;;;;;;21.40;99.90;;;;;;5075194;28;20394;-55
2022/08/01 07:43:35;;;;;;;;;;;21.40;99.90;;;;;;5077428;28;19912;-55
2022/08/01 07:46:02;;;;;;;;;;;21.50;99.90;;;;;;5075750;28;19999;-55
2022/08/01 07:48:27;;;;;;;;;;;21.60;99.90;;;;;;5089899;28;20398;-54
2022/08/01 07:50:53;;;;;;;;;;;21.50;99.90;;;;;;5089831;28;19913;-54
2022/08/01 07:53:18;;;;;;;;;;;21.60;99.90;;;;;;5088805;28;19912;-56
2022/08/01 07:55:44;;;;;;;;;;;21.40;99.90;;;;;;5095298;28;19970;-55
2022/08/01 07:58:09;;;;;;;;;;;21.40;99.90;;;;;;5079840;28;19916;-52
2022/08/01 08:00:35;;;;;;;;;;;21.50;99.90;;;;;;5078222;28;19993;-56
2022/08/01 08:03:00;;;;;;;;;;;21.40;99.90;;;;;;5074955;28;20334;-56
2022/08/01 08:05:27;;;;;;;;;;;21.50;99.90;;;;;;5083409;28;19923;-55
2022/08/01 08:07:52;;;;;;;;;;;21.70;99.90;;;;;;5091579;28;19999;-55
2022/08/01 08:10:18;;;;;;;;;;;22.00;99.90;;;;;;5080639;28;20371;-55
2022/08/01 08:12:43;;;;;;;;;;;21.80;99.90;;;;;;5088176;28;19912;-51
2022/08/01 08:15:09;;;;;;;;;;;21.70;99.90;;;;;;5077325;28;19969;-55
2022/08/01 08:17:35;;;;;;;;;;;21.70;99.90;;;;;;5074510;28;19921;-55
2022/08/01 08:20:01;;;;;;;;;;;21.70;99.90;;;;;;5079036;28;20559;-55
2022/08/01 08:22:27;;;;;;;;;;;21.70;99.90;;;;;;5062872;28;19921;-56
2022/08/01 08:24:52;;;;;;;;;;;21.60;99.90;;;;;;5076554;28;20403;-56
2022/08/01 08:27:26;;;;;;;;;;;21.40;99.90;;;;;;5070453;28;20001;-57
2022/08/01 08:29:51;;;;;;;;;;;21.50;99.90;;;;;;5076526;28;20359;-54
2022/08/01 08:32:17;;;;;;;;;;;21.40;99.90;;;;;;5074242;28;19908;-56
2022/08/01 08:34:43;;;;;;;;;;;21.10;99.90;;;;;;5074027;28;19931;-55
2022/08/01 08:37:09;;;;;;;;;;;20.90;99.90;;;;;;5073338;28;19908;-53
2022/08/01 08:39:35;;;;;;;;;;;20.90;99.90;;;;;;5091026;28;20005;-53
2022/08/01 08:42:01;;;;;;;;;;;21.10;99.90;;;;;;5090986;28;19959;-55
2022/08/01 08:44:27;;;;;;;;;;;21.20;99.90;;;;;;5074374;28;19913;-53
2022/08/01 08:46:55;;;;;;;;;;;21.40;99.90;;;;;;5070284;28;20292;-53
2022/08/01 08:49:25;;;;;;;;;;;21.60;99.90;;;;;;5070870;28;19908;-54
2022/08/01 08:51:52;;;;;;;;;;;21.40;99.90;;;;;;5072069;28;19923;-56
2022/08/01 08:54:20;;;;;;;;;;;21.40;99.90;;;;;;5072266;28;19919;-55
2022/08/01 08:56:46;;;;;;;;;;;21.70;99.90;;;;;;5074133;28;19981;-56
2022/08/01 08:59:13;;;;;;;;;;;21.50;99.90;;;;;;5067469;28;19912;-52
2022/08/01 09:01:39;;;;;;;;;;;21.40;99.90;;;;;;5070828;28;19916;-54
2022/08/01 09:04:05;;;;;;;;;;;21.40;99.90;;;;;;5077531;28;19968;-54
2022/08/01 09:06:31;;;;;;;;;;;21.40;99.90;;;;;;5071262;28;19970;-57
2022/08/01 09:08:57;;;;;;;;;;;21.80;99.90;;;;;;5071630;28;19973;-54
2022/08/01 09:11:23;;;;;;;;;;;21.60;99.90;;;;;;5072309;28;20346;-54
2022/08/01 09:14:05;;;;;;;;;;;21.60;99.90;;;;;;5069196;28;19931;-54
2022/08/01 09:16:31;;;;;;;;;;;21.70;99.90;;;;;;5071923;28;19909;-53
2022/08/01 09:19:12;;;;;;;;;;;21.80;99.90;;;;;;5071818;28;19917;-53
2022/08/01 09:21:38;;;;;;;;;;;21.90;99.90;;;;;;5068532;28;19919;-53
2022/08/01 09:24:05;;;;;;;;;;;21.90;99.90;;;;;;5072505;28;19920;-54
2022/08/01 09:26:36;;;;;;;;;;;22.10;99.90;;;;;;5071241;28;19908;-51
2022/08/01 09:29:05;;;;;;;;;;;22.40;99.90;;;;;;5074708;28;20273;-54
2022/08/01 09:31:38;;;;;;;;;;;22.40;99.90;;;;;;5072221;28;19909;-53
2022/08/01 09:34:04;;;;;;;;;;;22.50;99.90;;;;;;5073258;28;19955;-55
2022/08/01 09:36:46;;;;;;;;;;;22.50;99.90;;;;;;5071249;28;19913;-54
2022/08/01 09:39:12;;;;;;;;;;;22.70;99.90;;;;;;5073155;28;19912;-57
2022/08/01 09:41:38;;;;;;;;;;;22.80;99.30;;;;;;5071278;28;19988;-57
2022/08/01 09:44:03;;;;;;;;;;;22.80;99.30;;;;;;5071004;28;20748;-54
2022/08/01 09:46:29;;;;;;;;;;;22.80;99.30;;;;;;5071023;28;19920;-56
2022/08/01 09:49:04;;;;;;;;;;;22.70;99.50;;;;;;5072069;28;20150;-56
2022/08/01 09:51:37;;;;;;;;;;;22.80;99.40;;;;;;5072304;28;20004;-53
2022/08/01 09:54:04;;;;;;;;;;;23.10;98.90;;;;;;5069857;28;19925;-55
2022/08/01 09:56:45;;;;;;;;;;;23.30;98.00;;;;;;5067629;28;19924;-54
2022/08/01 09:59:11;;;;;;;;;;;23.50;97.60;;;;;;5068070;28;19956;-54
2022/08/01 10:01:44;;;;;;;;;;;23.40;97.30;;;;;;5074726;28;19991;-55
2022/08/01 10:04:11;;;;;;;;;;;23.50;97.50;;;;;;5068225;28;20283;-54
2022/08/01 10:06:38;;;;;;;;;;;23.50;97.60;;;;;;5070314;28;19913;-54
2022/08/01 10:09:03;;;;;;;;;;;23.60;97.70;;;;;;5073646;28;19926;-55
2022/08/01 10:11:29;;;;;;;;;;;23.60;96.90;;;;;;5069229;28;19995;-55
2022/08/01 10:13:55;;;;;;;;;;;23.50;97.30;;;;;;5071330;28;19913;-55
2022/08/01 10:16:21;;;;;;;;;;;23.40;97.00;;;;;;5069544;28;19912;-52
2022/08/01 10:18:47;;;;;;;;;;;23.20;97.30;;;;;;5070381;28;20338;-54
2022/08/01 10:21:13;;;;;;;;;;;23.20;97.60;;;;;;5072839;28;19927;-55
2022/08/01 10:23:38;;;;;;;;;;;23.00;98.00;;;;;;5070738;28;19912;-51
2022/08/01 10:26:05;;;;;;;;;;;23.20;97.50;;;;;;5071016;28;19921;-55
2022/08/01 10:28:31;;;;;;;;;;;23.60;97.40;;;;;;5067514;28;19916;-53
2022/08/01 10:30:57;;;;;;;;;;;23.90;97.20;;;;;;5070779;28;19912;-55
2022/08/01 10:33:23;;;;;;;;;;;24.10;96.60;;;;;;5073892;28;20317;-55
2022/08/01 10:35:50;;;;;;;;;;;24.10;96.20;;;;;;5069903;28;20380;-56
2022/08/01 10:38:15;;;;;;;;;;;24.10;95.40;;;;;;5068897;28;19920;-50
2022/08/01 10:40:41;;;;;;;;;;;23.90;95.70;;;;;;5070728;28;19916;-52
2022/08/01 10:43:08;;;;;;;;;;;23.70;95.70;;;;;;5063549;28;20015;-53
2022/08/01 10:45:34;;;;;;;;;;;23.70;95.70;;;;;;5072014;28;19978;-55
2022/08/01 10:48:00;;;;;;;;;;;23.70;95.80;;;;;;5068810;28;19913;-55
2022/08/01 10:50:28;;;;;;;;;;;23.80;95.80;;;;;;5072763;28;20360;-55
2022/08/01 10:53:23;;;;;;;;;;;23.80;96.00;;;;;;5071780;28;20349;-55
2022/08/01 10:55:59;;;;;;;;;;;23.60;96.30;;;;;;5053742;28;19913;-54
2022/08/01 10:58:26;;;;;;;;;;;23.70;96.50;;;;;;5050788;28;19916;-53
2022/08/01 11:01:12;;;;;;;;;;;23.70;96.80;;;;;;5050728;28;19921;-53
2022/08/01 11:03:38;;;;;;;;;;;23.70;96.60;;;;;;5062531;28;19931;-54
2022/08/01 11:06:04;;;;;;;;;;;23.80;95.70;;;;;;5067246;28;20042;-53
2022/08/01 11:08:30;;;;;;;;;;;23.80;95.80;;;;;;5072373;28;20503;-54
2022/08/01 11:11:01;;;;;;;;;;;23.70;96.00;;;;;;5074798;28;19939;-54
2022/08/01 11:13:45;;;;;;;;;;;23.80;96.10;;;;;;5067675;28;19952;-54
2022/08/01 11:16:29;;;;;;;;;;;23.90;96.40;;;;;;5068048;28;20012;-52
2022/08/01 11:18:55;;;;;;;;;;;24.00;96.30;;;;;;5068354;28;20356;-54
2022/08/01 11:21:23;;;;;;;;;;;24.00;96.40;;;;;;5071702;28;19913;-54
2022/08/01 11:23:53;;;;;;;;;;;24.10;97.00;;;;;;5071414;28;19967;-55
2022/08/01 11:26:18;;;;;;;;;;;24.00;97.40;;;;;;5071146;28;19912;-55
2022/08/01 11:28:45;;;;;;;;;;;24.10;97.10;;;;;;5071436;28;19913;-49
2022/08/01 11:31:15;;;;;;;;;;;24.30;96.70;;;;;;5079891;28;19999;-55
2022/08/01 11:33:41;;;;;;;;;;;24.40;96.50;;;;;;5089866;28;19953;-52
2022/08/01 11:36:09;;;;;;;;;;;24.20;96.40;;;;;;5071849;28;20505;-53
2022/08/01 11:38:35;;;;;;;;;;;24.20;96.10;;;;;;5064408;28;19946;-54
2022/08/01 11:41:20;;;;;;;;;;;24.20;96.20;;;;;;5069599;28;19913;-51
2022/08/01 11:43:59;;;;;;;;;;;24.10;96.00;;;;;;5061510;28;19916;-54
2022/08/01 11:46:44;;;;;;;;;;;24.10;96.10;;;;;;5067054;28;19964;-54
2022/08/01 11:49:22;;;;;;;;;;;24.10;96.20;;;;;;5077841;28;19919;-53
2022/08/01 11:51:47;;;;;;;;;;;24.10;95.90;;;;;;5051317;28;20435;-50
2022/08/01 11:54:13;;;;;;;;;;;24.20;95.80;;;;;;5074149;28;19958;-48
2022/08/01 11:56:39;;;;;;;;;;;24.10;96.00;;;;;;5077062;28;19917;-50
2022/08/01 11:59:05;;;;;;;;;;;24.20;95.80;;;;;;5071805;28;19919;-52
2022/08/01 12:01:31;;;;;;;;;;;24.10;96.00;;;;;;5070469;28;19923;-54
2022/08/01 12:03:56;;;;;;;;;;;24.30;95.90;;;;;;5074370;28;19995;-51
2022/08/01 12:06:28;;;;;;;;;;;24.40;95.90;;;;;;5072681;28;19923;-53
2022/08/01 12:08:54;;;;;;;;;;;24.80;95.40;;;;;;5074467;28;19938;-51
2022/08/01 12:11:19;;;;;;;;;;;24.70;95.30;;;;;;5082353;28;19912;-51
2022/08/01 12:13:46;;;;;;;;;;;24.60;95.30;;;;;;5079819;28;19912;-52
2022/08/01 12:16:12;;;;;;;;;;;24.60;95.20;;;;;;5081179;28;19966;-50
2022/08/01 12:18:41;;;;;;;;;;;24.50;95.40;;;;;;5094146;28;19908;-52
2022/08/01 12:21:06;;;;;;;;;;;24.70;95.30;;;;;;5081296;28;19970;-52
2022/08/01 12:23:32;;;;;;;;;;;24.70;95.60;;;;;;5064633;28;19921;-50
2022/08/01 12:25:57;;;;;;;;;;;25.00;95.60;;;;;;5070239;28;19913;-52
2022/08/01 12:28:24;;;;;;;;;;;25.00;95.40;;;;;;5074129;28;20291;-49
2022/08/01 12:30:49;;;;;;;;;;;24.50;95.50;;;;;;5074517;28;19913;-52
2022/08/01 12:33:17;;;;;;;;;;;24.60;95.40;;;;;;5092836;28;19923;-51
2022/08/01 12:35:42;;;;;;;;;;;24.60;95.20;;;;;;5088524;28;19912;-54
2022/08/01 12:38:15;;;;;;;;;;;25.00;94.70;;;;;;5072476;28;19923;-51
2022/08/01 12:40:42;;;;;;;;;;;25.40;94.10;;;;;;5075309;28;19915;-50
2022/08/01 12:43:09;;;;;;;;;;;25.40;93.90;;;;;;5068676;28;19916;-53
2022/08/01 12:45:44;;;;;;;;;;;25.40;93.70;;;;;;5073856;28;19936;-49
2022/08/01 12:48:11;;;;;;;;;;;25.20;94.00;;;;;;5070702;28;19912;-52
2022/08/01 12:50:38;;;;;;;;;;;25.10;93.90;;;;;;5074065;28;20294;-53
2022/08/01 12:53:04;;;;;;;;;;;25.20;93.70;;;;;;5072319;28;20403;-53
2022/08/01 12:55:30;;;;;;;;;;;25.00;94.00;;;;;;5072394;28;19913;-50
2022/08/01 12:58:08;;;;;;;;;;;25.10;93.90;;;;;;5065874;28;19919;-51
2022/08/01 13:00:34;;;;;;;;;;;24.70;94.30;;;;;;5070535;28;20303;-51
2022/08/01 13:03:06;;;;;;;;;;;24.50;94.60;;;;;;5073397;28;19924;-56
2022/08/01 13:05:44;;;;;;;;;;;24.40;94.50;;;;;;5072727;28;19966;-51
2022/08/01 13:08:11;;;;;;;;;;;24.20;94.80;;;;;;5071670;28;19924;-54
2022/08/01 13:10:37;;;;;;;;;;;24.30;94.60;;;;;;5069438;28;20283;-47
2022/08/01 13:13:03;;;;;;;;;;;24.30;94.80;;;;;;5069508;28;19909;-53
2022/08/01 13:15:32;;;;;;;;;;;24.30;94.80;;;;;;5070912;28;19985;-51
2022/08/01 13:18:00;;;;;;;;;;;24.30;95.00;;;;;;5068460;28;19912;-55
2022/08/01 13:20:30;;;;;;;;;;;24.20;95.10;;;;;;5073134;28;19919;-53
2022/08/01 13:23:10;;;;;;;;;;;24.10;95.20;;;;;;5071679;28;19944;-53
2022/08/01 13:25:45;;;;;;;;;;;24.00;95.30;;;;;;5072147;28;20003;-51
2022/08/01 13:28:15;;;;;;;;;;;24.10;95.20;;;;;;5069415;28;19920;-53
2022/08/01 13:30:50;;;;;;;;;;;24.10;95.30;;;;;;5082771;28;19913;-52
2022/08/01 13:33:15;;;;;;;;;;;24.10;95.20;;;;;;5073257;28;19913;-52
2022/08/01 13:35:41;;;;;;;;;;;24.30;95.20;;;;;;5065825;28;19995;-55
2022/08/01 13:38:07;;;;;;;;;;;24.20;94.90;;;;;;5068714;28;19924;-55
2022/08/01 13:40:32;;;;;;;;;;;24.30;95.10;;;;;;5070108;28;19920;-52
2022/08/01 13:42:58;;;;;;;;;;;24.20;95.30;;;;;;5064265;28;19982;-49
2022/08/01 13:45:24;;;;;;;;;;;24.10;95.60;;;;;;5069498;28;19923;-56
2022/08/01 13:47:49;;;;;;;;;;;24.10;95.10;;;;;;5071911;28;19912;-51
2022/08/01 13:50:15;;;;;;;;;;;24.20;95.00;;;;;;5072434;28;19971;-54
2022/08/01 13:52:40;;;;;;;;;;;24.10;95.10;;;;;;5070525;28;19944;-55
2022/08/01 13:55:06;;;;;;;;;;;24.40;94.90;;;;;;5069541;28;20007;-54
2022/08/01 13:57:32;;;;;;;;;;;24.40;94.70;;;;;;5087246;28;20387;-50
2022/08/01 13:59:59;;;;;;;;;;;24.70;94.10;;;;;;5092210;28;19916;-56
2022/08/01 14:02:28;;;;;;;;;;;24.80;94.20;;;;;;5077733;28;19920;-51
2022/08/01 14:04:58;;;;;;;;;;;25.20;93.80;;;;;;5071596;28;20299;-51
2022/08/01 14:07:24;;;;;;;;;;;25.00;93.70;;;;;;5072083;28;19916;-52
2022/08/01 14:09:49;;;;;;;;;;;25.10;93.50;;;;;;5072219;28;19935;-50
2022/08/01 14:12:15;;;;;;;;;;;25.60;92.70;;;;;;5076054;28;19917;-52
2022/08/01 14:14:40;;;;;;;;;;;25.60;92.90;;;;;;5072234;28;19913;-50
2022/08/01 14:17:06;;;;;;;;;;;25.80;92.40;;;;;;5071218;28;19913;-54
2022/08/01 14:19:31;;;;;;;;;;;25.80;92.00;;;;;;5072568;28;20402;-54
2022/08/01 14:21:57;;;;;;;;;;;25.70;92.00;;;;;;5071796;28;19922;-53
2022/08/01 14:24:23;;;;;;;;;;;25.70;92.30;;;;;;5078970;28;19920;-55
2022/08/01 14:26:49;;;;;;;;;;;25.80;91.70;;;;;;5088154;28;20333;-53